createdAt,value
2023-05-24T00:02:06.735Z,21.75
2023-05-24T00:04:53.760Z,21.72
2023-05-24T00:07:40.858Z,21.71
2023-05-24T00:10:27.738Z,21.70
2023-05-24T00:13:15.504Z,21.67
2023-05-24T00:16:02.364Z,21.62
2023-05-24T00:18:49.423Z,21.59
2023-05-24T00:21:36.798Z,21.55
2023-05-24T00:24:23.753Z,21.53
2023-05-24T00:27:11.906Z,21.49
2023-05-24T00:29:59.022Z,21.46
2023-05-24T00:32:45.984Z,21.44
2023-05-24T00:35:32.869Z,21.39
2023-05-24T00:38:19.978Z,21.35
2023-05-24T00:41:06.843Z,21.32
2023-05-24T00:43:53.785Z,21.29
2023-05-24T00:46:40.757Z,21.26
2023-05-24T00:49:28.040Z,21.25
2023-05-24T00:52:15.249Z,21.24
2023-05-24T00:55:02.621Z,21.21
2023-05-24T00:57:50.266Z,21.19
2023-05-24T01:00:37.410Z,21.16
2023-05-24T01:03:24.362Z,21.11
2023-05-24T01:06:13.287Z,21.09
2023-05-24T01:09:10.191Z,21.04
2023-05-24T01:12:04.340Z,21.04
2023-05-24T01:14:58.519Z,21.00
2023-05-24T01:18:07.950Z,21.00
2023-05-24T01:21:06.830Z,20.98
2023-05-24T01:24:13.843Z,20.96
2023-05-24T01:27:08.820Z,20.94
2023-05-24T01:29:56.462Z,20.90
2023-05-24T01:32:43.390Z,20.88
2023-05-24T01:35:30.315Z,20.85
2023-05-24T01:38:17.250Z,20.83
2023-05-24T01:41:27.383Z,20.81
2023-05-24T01:44:23.433Z,20.78
2023-05-24T01:47:23.126Z,20.75
2023-05-24T01:50:16.738Z,20.73
2023-05-24T01:53:07.356Z,20.71
2023-05-24T01:55:55.893Z,20.68
2023-05-24T01:58:44.488Z,20.66
2023-05-24T02:01:32.001Z,20.63
2023-05-24T02:04:18.971Z,20.60
2023-05-24T02:07:06.444Z,20.59
2023-05-24T02:09:53.287Z,20.57
2023-05-24T02:12:40.151Z,20.53
2023-05-24T02:15:30.316Z,20.52
2023-05-24T02:18:18.696Z,20.50
2023-05-24T02:21:05.802Z,20.46
2023-05-24T02:23:52.665Z,20.42
2023-05-24T02:26:39.547Z,20.40
2023-05-24T02:29:26.419Z,20.37
2023-05-24T02:32:13.629Z,20.36
2023-05-24T02:35:04.019Z,20.35
2023-05-24T02:37:51.329Z,20.33
2023-05-24T02:40:38.259Z,20.29
2023-05-24T02:43:25.068Z,20.27
2023-05-24T02:46:12.329Z,20.22
2023-05-24T02:48:59.244Z,20.22
2023-05-24T02:51:46.649Z,20.19
2023-05-24T02:54:33.510Z,20.16
2023-05-24T02:57:20.573Z,20.13
2023-05-24T03:00:11.642Z,20.08
2023-05-24T03:03:03.008Z,20.06
2023-05-24T03:05:49.953Z,20.04
2023-05-24T03:08:39.340Z,20.03
2023-05-24T03:11:26.284Z,20.01
2023-05-24T03:14:13.121Z,19.96
2023-05-24T03:16:59.984Z,19.94
2023-05-24T03:19:46.857Z,19.93
2023-05-24T03:22:33.737Z,19.89
2023-05-24T03:25:20.845Z,19.85
2023-05-24T03:28:07.746Z,19.83
2023-05-24T03:30:54.649Z,19.82
2023-05-24T03:33:41.516Z,19.81
2023-05-24T03:36:29.225Z,19.75
2023-05-24T03:39:16.121Z,19.73
2023-05-24T03:42:02.994Z,19.71
2023-05-24T03:44:49.872Z,19.69
2023-05-24T03:47:36.779Z,19.68
2023-05-24T03:50:23.701Z,19.66
2023-05-24T03:53:10.666Z,19.65
2023-05-24T03:55:57.529Z,19.62
2023-05-24T03:58:44.379Z,19.59
2023-05-24T04:01:34.555Z,19.59
2023-05-24T04:04:22.192Z,19.56
2023-05-24T04:07:11.946Z,19.55
2023-05-24T04:09:58.865Z,19.52
2023-05-24T04:12:45.835Z,19.49
2023-05-24T04:15:33.061Z,19.46
2023-05-24T04:18:20.055Z,19.45
2023-05-24T04:21:07.008Z,19.44
2023-05-24T04:23:53.877Z,19.42
2023-05-24T04:26:40.723Z,19.39
2023-05-24T04:29:27.806Z,19.39
2023-05-24T04:32:14.793Z,19.39
2023-05-24T04:35:04.456Z,19.38
2023-05-24T04:37:52.492Z,19.36
2023-05-24T04:40:39.348Z,19.31
2023-05-24T04:43:26.469Z,19.30
2023-05-24T04:46:13.417Z,19.29
2023-05-24T04:49:01.770Z,19.25
2023-05-24T04:51:48.611Z,19.24
2023-05-24T04:54:35.547Z,19.22
2023-05-24T04:57:22.488Z,19.20
2023-05-24T05:00:10.217Z,19.19
2023-05-24T05:02:57.180Z,19.17
2023-05-24T05:05:45.184Z,19.15
2023-05-24T05:08:32.111Z,19.13
2023-05-24T05:11:19.198Z,19.11
2023-05-24T05:14:09.114Z,19.09
2023-05-24T05:16:56.233Z,19.07
2023-05-24T05:19:43.250Z,19.06
2023-05-24T05:22:31.299Z,19.04
2023-05-24T05:25:18.392Z,19.03
2023-05-24T05:28:05.504Z,19.01
2023-05-24T05:30:52.464Z,18.99
2023-05-24T05:33:39.386Z,18.99
2023-05-24T05:36:26.474Z,18.96
2023-05-24T05:39:14.048Z,18.95
2023-05-24T05:42:02.268Z,18.94
2023-05-24T05:44:49.171Z,18.91
2023-05-24T05:47:36.281Z,18.90
2023-05-24T05:50:23.276Z,18.85
2023-05-24T05:53:10.255Z,18.82
2023-05-24T05:55:57.198Z,18.78
2023-05-24T05:58:44.033Z,18.76
2023-05-24T06:01:30.975Z,18.73
2023-05-24T06:04:18.388Z,18.74
2023-05-24T06:07:05.535Z,18.72
2023-05-24T06:09:52.409Z,18.72
2023-05-24T06:12:40.497Z,18.71
2023-05-24T06:15:27.398Z,18.71
2023-05-24T06:18:15.410Z,18.71
2023-05-24T06:21:02.588Z,18.71
2023-05-24T06:23:49.537Z,18.70
2023-05-24T06:26:37.374Z,18.72
2023-05-24T06:29:25.298Z,18.72
2023-05-24T06:32:12.331Z,18.70
2023-05-24T06:34:59.210Z,18.69
2023-05-24T06:37:46.139Z,18.68
2023-05-24T06:40:33.150Z,18.68
2023-05-24T06:43:20.923Z,18.66
2023-05-24T06:46:07.767Z,18.65
2023-05-24T06:48:54.761Z,18.65
2023-05-24T06:51:41.729Z,18.64
2023-05-24T06:54:28.592Z,18.63
2023-05-24T06:57:15.574Z,18.62
2023-05-24T07:00:02.441Z,18.61
2023-05-24T07:02:49.381Z,18.61
2023-05-24T07:05:36.783Z,18.59
2023-05-24T07:08:25.002Z,18.58
2023-05-24T07:11:11.922Z,18.57
2023-05-24T07:13:58.824Z,18.57
2023-05-24T07:16:46.725Z,18.57
2023-05-24T07:19:35.884Z,18.56
2023-05-24T07:22:24.388Z,18.55
2023-05-24T07:25:11.453Z,18.52
2023-05-24T07:27:58.395Z,18.51
2023-05-24T07:30:45.478Z,18.51
2023-05-24T07:33:32.388Z,18.51
2023-05-24T07:36:19.290Z,18.50
2023-05-24T07:39:06.678Z,18.50
2023-05-24T07:41:54.540Z,18.51
2023-05-24T07:44:42.271Z,18.50
2023-05-24T07:47:29.170Z,18.51
2023-05-24T07:50:16.623Z,18.53
2023-05-24T07:53:05.311Z,18.52
2023-05-24T07:55:52.269Z,18.51
2023-05-24T07:58:41.301Z,18.50
2023-05-24T08:01:28.904Z,18.51
2023-05-24T08:04:16.208Z,18.50
2023-05-24T08:07:03.824Z,18.50
2023-05-24T08:09:50.734Z,18.49
2023-05-24T08:12:37.554Z,18.49
2023-05-24T08:15:25.023Z,18.52
2023-05-24T08:18:11.964Z,18.50
2023-05-24T08:20:58.921Z,18.51
2023-05-24T08:23:45.754Z,18.52
2023-05-24T08:26:32.669Z,18.53
2023-05-24T08:29:19.636Z,18.54
2023-05-24T08:32:09.561Z,18.54
2023-05-24T08:35:06.781Z,18.56
2023-05-24T08:37:57.807Z,18.56
2023-05-24T08:40:45.192Z,18.57
2023-05-24T08:43:32.932Z,18.57
2023-05-24T08:46:20.265Z,18.58
2023-05-24T08:49:09.174Z,18.59
2023-05-24T08:51:56.097Z,18.59
2023-05-24T08:54:43.331Z,18.59
2023-05-24T08:57:31.823Z,18.58
2023-05-24T09:00:19.485Z,18.58
2023-05-24T09:03:07.011Z,18.59
2023-05-24T09:05:53.923Z,18.58
2023-05-24T09:08:43.849Z,18.58
2023-05-24T09:11:32.269Z,18.57
2023-05-24T09:14:19.215Z,18.58
2023-05-24T09:17:06.142Z,18.58
2023-05-24T09:19:56.012Z,18.60
2023-05-24T09:22:44.008Z,18.60
2023-05-24T09:25:31.030Z,18.62
2023-05-24T09:28:18.617Z,18.62
2023-05-24T09:31:07.834Z,18.63
2023-05-24T09:33:55.218Z,18.64
2023-05-24T09:36:44.990Z,18.66
2023-05-24T09:39:32.119Z,18.65
2023-05-24T09:42:24.532Z,18.67
2023-05-24T09:45:12.090Z,18.67
2023-05-24T09:47:59.664Z,18.67
2023-05-24T09:51:07.536Z,18.68
2023-05-24T09:53:57.446Z,18.69
2023-05-24T09:56:46.871Z,18.69
2023-05-24T09:59:36.763Z,18.69
2023-05-24T10:02:25.902Z,18.69
2023-05-24T10:05:13.806Z,18.71
2023-05-24T10:08:01.498Z,18.71
2023-05-24T10:10:48.358Z,18.73
2023-05-24T10:13:36.497Z,18.75
2023-05-24T10:16:23.401Z,18.75
2023-05-24T10:19:10.268Z,18.76
2023-05-24T10:21:58.669Z,18.78
2023-05-24T10:24:50.535Z,18.78
2023-05-24T10:27:38.264Z,18.79
2023-05-24T10:30:51.146Z,18.79
2023-05-24T10:33:38.678Z,18.80
2023-05-24T10:36:28.920Z,18.81
2023-05-24T10:39:15.844Z,18.82
2023-05-24T10:42:06.048Z,18.84
2023-05-24T10:44:56.822Z,18.88
2023-05-24T10:47:43.616Z,18.89
2023-05-24T10:50:31.038Z,18.91
2023-05-24T10:53:19.666Z,18.92
2023-05-24T10:56:09.604Z,18.94
2023-05-24T10:58:57.932Z,18.96
2023-05-24T11:01:44.918Z,18.97
2023-05-24T11:04:34.203Z,18.98
2023-05-24T11:07:21.115Z,19.00
2023-05-24T11:10:10.854Z,19.04
2023-05-24T11:13:00.518Z,19.05
2023-05-24T11:15:51.451Z,19.05
2023-05-24T11:18:40.103Z,19.05
2023-05-24T11:21:27.940Z,19.05
2023-05-24T11:24:17.413Z,19.08
2023-05-24T11:27:04.471Z,19.09
2023-05-24T11:29:52.145Z,19.09
2023-05-24T11:32:42.519Z,19.12
2023-05-24T11:35:29.842Z,19.11
2023-05-24T11:38:17.140Z,19.13
2023-05-24T11:41:04.163Z,19.15
2023-05-24T11:43:51.037Z,19.17
2023-05-24T11:46:43.237Z,19.17
2023-05-24T11:49:30.221Z,19.18
2023-05-24T11:52:17.288Z,19.20
2023-05-24T11:55:04.706Z,19.21
2023-05-24T11:57:54.625Z,19.22
2023-05-24T12:00:42.989Z,19.22
2023-05-24T12:03:30.353Z,19.23
2023-05-24T12:06:17.978Z,19.23
2023-05-24T12:09:08.629Z,19.24
2023-05-24T12:11:56.053Z,19.26
2023-05-24T12:14:43.031Z,19.27
2023-05-24T12:17:29.905Z,19.27
2023-05-24T12:20:19.053Z,19.28
2023-05-24T12:23:08.903Z,19.28
2023-05-24T12:25:59.968Z,19.31
2023-05-24T12:28:48.374Z,19.30
2023-05-24T12:31:35.398Z,19.31
2023-05-24T12:34:22.579Z,19.30
2023-05-24T12:37:10.139Z,19.33
2023-05-24T12:39:56.998Z,19.33
2023-05-24T12:42:45.698Z,19.33
2023-05-24T12:45:32.723Z,19.34
2023-05-24T12:48:20.178Z,19.36
2023-05-24T12:51:08.507Z,19.39
2023-05-24T12:53:55.311Z,19.40
2023-05-24T12:56:42.247Z,19.42
2023-05-24T12:59:29.534Z,19.44
2023-05-24T13:02:16.368Z,19.45
2023-05-24T13:05:04.090Z,19.47
2023-05-24T13:07:52.278Z,19.50
2023-05-24T13:10:39.323Z,19.54
2023-05-24T13:13:26.332Z,19.57
2023-05-24T13:16:13.385Z,19.58
2023-05-24T13:19:00.286Z,19.61
2023-05-24T13:21:47.188Z,19.63
2023-05-24T13:24:34.118Z,19.66
2023-05-24T13:27:21.361Z,19.67
2023-05-24T13:30:08.751Z,19.68
2023-05-24T13:32:56.070Z,19.69
2023-05-24T13:35:43.277Z,19.71
2023-05-24T13:38:30.330Z,19.73
2023-05-24T13:41:17.191Z,19.73
2023-05-24T13:44:04.256Z,19.74
2023-05-24T13:46:51.222Z,19.76
2023-05-24T13:49:38.080Z,19.76
2023-05-24T13:52:26.287Z,19.77
2023-05-24T13:55:13.445Z,19.80
2023-05-24T13:58:01.686Z,19.81
2023-05-24T14:00:48.649Z,19.84
2023-05-24T14:03:35.479Z,19.85
2023-05-24T14:06:22.367Z,19.87
2023-05-24T14:09:09.515Z,19.88
2023-05-24T14:11:56.600Z,19.88
2023-05-24T14:14:59.764Z,19.90
2023-05-24T14:17:47.328Z,19.93
2023-05-24T14:20:36.827Z,19.95
2023-05-24T14:23:23.794Z,19.98
2023-05-24T14:26:10.655Z,19.99
2023-05-24T14:28:57.494Z,20.00
2023-05-24T14:31:45.229Z,20.01
2023-05-24T14:34:32.142Z,20.02
2023-05-24T14:37:18.983Z,20.03
2023-05-24T14:40:06.898Z,20.03
2023-05-24T14:42:55.362Z,20.05
2023-05-24T14:45:42.988Z,20.04
2023-05-24T14:48:30.303Z,20.05
2023-05-24T14:51:17.213Z,20.03
2023-05-24T14:54:04.534Z,20.05
2023-05-24T14:56:51.703Z,20.05
2023-05-24T14:59:38.600Z,20.05
2023-05-24T15:02:25.877Z,20.06
2023-05-24T15:05:12.769Z,20.07
2023-05-24T15:07:59.811Z,20.07
2023-05-24T15:10:46.995Z,20.08
2023-05-24T15:13:33.917Z,20.08
2023-05-24T15:16:21.071Z,20.09
2023-05-24T15:19:09.155Z,20.10
2023-05-24T15:21:56.020Z,20.10
2023-05-24T15:24:42.878Z,20.12
2023-05-24T15:27:29.701Z,20.12
2023-05-24T15:30:19.118Z,20.11
2023-05-24T15:33:06.180Z,20.12
2023-05-24T15:35:53.202Z,20.14
2023-05-24T15:38:40.735Z,20.13
2023-05-24T15:41:28.330Z,20.13
2023-05-24T15:44:15.201Z,20.13
2023-05-24T15:47:02.150Z,20.12
2023-05-24T15:49:49.744Z,20.13
2023-05-24T15:52:36.756Z,20.12
2023-05-24T15:55:23.684Z,20.11
2023-05-24T15:58:13.424Z,20.01
2023-05-24T16:01:00.523Z,19.74
2023-05-24T16:03:47.478Z,19.54
2023-05-24T16:06:34.464Z,19.39
2023-05-24T16:09:21.480Z,19.40
2023-05-24T16:12:08.982Z,19.48
2023-05-24T16:14:56.142Z,19.58
2023-05-24T16:17:44.752Z,19.68
2023-05-24T16:20:31.688Z,19.75
2023-05-24T16:23:19.454Z,19.83
2023-05-24T16:26:06.389Z,19.88
2023-05-24T16:28:53.259Z,19.93
2023-05-24T16:31:40.506Z,19.97
2023-05-24T16:34:27.428Z,19.98
2023-05-24T16:37:14.287Z,20.00
2023-05-24T16:40:01.311Z,20.00
2023-05-24T16:42:49.899Z,20.02
2023-05-24T16:45:36.770Z,20.03
2023-05-24T16:48:28.372Z,20.04
2023-05-24T16:51:16.506Z,20.05
2023-05-24T16:54:04.126Z,20.04
2023-05-24T16:56:53.828Z,20.05
2023-05-24T16:59:42.269Z,20.03
2023-05-24T17:02:29.199Z,20.04
2023-05-24T17:05:16.475Z,20.03
2023-05-24T17:08:03.567Z,20.03
2023-05-24T17:10:55.930Z,20.03
2023-05-24T17:13:42.988Z,20.04
2023-05-24T17:16:29.989Z,20.03
2023-05-24T17:19:19.426Z,20.03
2023-05-24T17:22:06.529Z,20.02
2023-05-24T17:24:53.656Z,20.02
2023-05-24T17:27:40.719Z,20.02
2023-05-24T17:30:29.195Z,20.02
2023-05-24T17:33:16.163Z,20.01
2023-05-24T17:36:04.244Z,19.99
2023-05-24T17:38:51.616Z,19.98
2023-05-24T17:41:38.552Z,19.98
2023-05-24T17:44:25.404Z,19.98
2023-05-24T17:47:12.279Z,19.97
2023-05-24T17:49:59.123Z,19.98
2023-05-24T17:52:46.149Z,19.98
2023-05-24T17:55:33.036Z,19.99
2023-05-24T17:58:19.944Z,19.98
2023-05-24T18:01:08.497Z,19.98
2023-05-24T18:03:55.546Z,19.97
2023-05-24T18:06:42.435Z,19.95
2023-05-24T18:09:29.625Z,19.93
2023-05-24T18:12:16.507Z,19.93
2023-05-24T18:15:03.610Z,19.91
2023-05-24T18:17:50.678Z,19.89
2023-05-24T18:20:37.746Z,19.88
2023-05-24T18:23:24.721Z,19.90
2023-05-24T18:26:12.149Z,19.90
2023-05-24T18:28:58.966Z,19.90
2023-05-24T18:31:46.470Z,19.88
2023-05-24T18:34:33.478Z,19.87
2023-05-24T18:37:22.955Z,19.86
2023-05-24T18:40:10.441Z,19.86
2023-05-24T18:42:57.401Z,19.85
2023-05-24T18:45:44.482Z,19.83
2023-05-24T18:48:31.500Z,19.82
2023-05-24T18:51:18.642Z,19.86
2023-05-24T18:54:05.691Z,19.85
2023-05-24T18:56:52.555Z,19.86
2023-05-24T18:59:39.393Z,19.85
2023-05-24T19:02:26.572Z,19.84
2023-05-24T19:05:13.530Z,19.83
2023-05-24T19:08:00.456Z,19.80
2023-05-24T19:10:47.320Z,19.76
2023-05-24T19:13:34.213Z,19.74
2023-05-24T19:16:21.116Z,19.71
2023-05-24T19:19:08.013Z,19.70
2023-05-24T19:21:55.331Z,19.68
2023-05-24T19:24:42.228Z,19.65
2023-05-24T19:27:29.074Z,19.63
2023-05-24T19:30:16.180Z,19.62
2023-05-24T19:33:03.557Z,19.60
2023-05-24T19:35:51.588Z,19.60
2023-05-24T19:38:38.425Z,19.53
2023-05-24T19:41:25.603Z,19.51
2023-05-24T19:44:12.487Z,19.50
2023-05-24T19:46:59.344Z,19.49
2023-05-24T19:49:46.234Z,19.47
2023-05-24T19:52:33.194Z,19.48
2023-05-24T19:55:20.054Z,19.43
2023-05-24T19:58:06.927Z,19.40
2023-05-24T20:00:53.801Z,19.39
2023-05-24T20:03:40.804Z,19.36
2023-05-24T20:06:27.794Z,19.32
2023-05-24T20:09:18.732Z,19.28
2023-05-24T20:12:06.177Z,19.24
2023-05-24T20:14:53.632Z,19.22
2023-05-24T20:17:41.301Z,19.19
2023-05-24T20:20:28.279Z,19.14
2023-05-24T20:23:15.340Z,19.12
2023-05-24T20:26:02.227Z,19.11
2023-05-24T20:28:51.306Z,19.09
2023-05-24T20:31:38.313Z,19.06
2023-05-24T20:34:25.225Z,19.03
2023-05-24T20:37:12.126Z,18.98
2023-05-24T20:39:58.939Z,18.94
2023-05-24T20:42:45.802Z,18.92
2023-05-24T20:45:32.765Z,18.89
2023-05-24T20:48:19.727Z,18.87
2023-05-24T20:51:08.239Z,18.85
2023-05-24T20:53:55.890Z,18.83
2023-05-24T20:56:43.233Z,18.79
2023-05-24T20:59:30.565Z,18.76
2023-05-24T21:02:17.514Z,18.70
2023-05-24T21:05:05.968Z,18.68
2023-05-24T21:07:52.844Z,18.67
2023-05-24T21:10:39.877Z,18.65
2023-05-24T21:13:28.065Z,18.64
2023-05-24T21:16:15.046Z,18.63
2023-05-24T21:19:02.008Z,18.62
2023-05-24T21:21:48.874Z,18.59
2023-05-24T21:24:35.855Z,18.58
2023-05-24T21:27:22.776Z,18.56
2023-05-24T21:30:09.922Z,18.54
2023-05-24T21:32:56.918Z,18.53
2023-05-24T21:35:44.124Z,18.50
2023-05-24T21:38:31.355Z,18.49
2023-05-24T21:41:18.244Z,18.47
2023-05-24T21:44:07.310Z,18.47
2023-05-24T21:46:54.328Z,18.45
2023-05-24T21:49:41.368Z,18.43
2023-05-24T21:52:28.253Z,18.39
2023-05-24T21:55:15.133Z,18.36
2023-05-24T21:58:02.005Z,18.34
2023-05-24T22:00:49.045Z,18.30
2023-05-24T22:03:37.640Z,18.24
2023-05-24T22:06:24.660Z,18.22
2023-05-24T22:09:13.568Z,18.18
2023-05-24T22:12:00.768Z,18.17
2023-05-24T22:14:47.651Z,18.15
2023-05-24T22:17:36.869Z,18.16
2023-05-24T22:20:26.001Z,18.14
2023-05-24T22:23:14.384Z,18.12
2023-05-24T22:26:01.324Z,18.11
2023-05-24T22:28:52.580Z,18.08
2023-05-24T22:31:39.743Z,18.07
2023-05-24T22:34:29.656Z,18.06
2023-05-24T22:37:16.857Z,18.05
2023-05-24T22:40:04.785Z,18.02
2023-05-24T22:42:51.701Z,18.00
2023-05-24T22:45:38.562Z,17.97
2023-05-24T22:48:26.723Z,17.94
2023-05-24T22:51:13.607Z,17.92
2023-05-24T22:54:00.486Z,17.88
2023-05-24T22:56:47.379Z,17.84
2023-05-24T22:59:34.364Z,17.83
2023-05-24T23:02:21.260Z,17.81
2023-05-24T23:05:09.646Z,17.80
2023-05-24T23:07:58.266Z,17.78
2023-05-24T23:10:47.814Z,17.78
2023-05-24T23:13:35.950Z,17.78
2023-05-24T23:16:22.789Z,17.76
2023-05-24T23:19:09.713Z,17.75
2023-05-24T23:21:56.576Z,17.73
2023-05-24T23:24:43.805Z,17.72
2023-05-24T23:27:30.740Z,17.69
2023-05-24T23:30:17.704Z,17.67
2023-05-24T23:33:04.609Z,17.67
2023-05-24T23:35:51.572Z,17.67
2023-05-24T23:38:38.519Z,17.66
2023-05-24T23:41:26.404Z,17.63
2023-05-24T23:44:13.258Z,17.62
2023-05-24T23:47:01.588Z,17.60
2023-05-24T23:49:48.470Z,17.59
2023-05-24T23:52:35.631Z,17.58
2023-05-24T23:55:23.249Z,17.57
2023-05-24T23:58:10.132Z,17.55
